sensor_id;sensor_type;location;lat;lon;timestamp;P1;durP1;ratioP1;P2;durP2;ratioP2
70406;SDS011;57821;52.202;0.154;2023-11-18T00:00:07;18.80;;;4.30;;
70406;SDS011;57821;52.202;0.154;2023-11-18T00:03:00;18.63;;;4.65;;
70406;SDS011;57821;52.202;0.154;2023-11-18T00:05:47;21.35;;;5.32;;
70406;SDS011;57821;52.202;0.154;2023-11-18T00:08:34;20.30;;;4.35;;
70406;SDS011;57821;52.202;0.154;2023-11-18T00:11:21;23.58;;;5.00;;
70406;SDS011;57821;52.202;0.154;2023-11-18T00:14:08;22.83;;;4.43;;
70406;SDS011;57821;52.202;0.154;2023-11-18T00:16:57;16.25;;;4.97;;
70406;SDS011;57821;52.202;0.154;2023-11-18T00:19:46;21.90;;;4.13;;
70406;SDS011;57821;52.202;0.154;2023-11-18T00:22:33;19.70;;;4.63;;
70406;SDS011;57821;52.202;0.154;2023-11-18T00:25:20;19.20;;;4.45;;
70406;SDS011;57821;52.202;0.154;2023-11-18T00:28:11;15.75;;;4.00;;
70406;SDS011;57821;52.202;0.154;2023-11-18T00:30:58;22.77;;;4.95;;
70406;SDS011;57821;52.202;0.154;2023-11-18T00:33:47;23.70;;;4.80;;
70406;SDS011;57821;52.202;0.154;2023-11-18T00:36:34;20.50;;;5.35;;
70406;SDS011;57821;52.202;0.154;2023-11-18T00:39:21;20.50;;;5.20;;
70406;SDS011;57821;52.202;0.154;2023-11-18T00:42:08;22.35;;;4.93;;
70406;SDS011;57821;52.202;0.154;2023-11-18T00:44:57;17.30;;;4.30;;
70406;SDS011;57821;52.202;0.154;2023-11-18T00:47:44;29.80;;;5.35;;
70406;SDS011;57821;52.202;0.154;2023-11-18T00:50:31;19.10;;;5.15;;
70406;SDS011;57821;52.202;0.154;2023-11-18T00:53:20;22.13;;;5.65;;
70406;SDS011;57821;52.202;0.154;2023-11-18T00:56:07;24.50;;;5.50;;
70406;SDS011;57821;52.202;0.154;2023-11-18T00:58:56;25.75;;;5.68;;
70406;SDS011;57821;52.202;0.154;2023-11-18T01:01:43;18.35;;;5.68;;
70406;SDS011;57821;52.202;0.154;2023-11-18T01:04:30;21.60;;;5.00;;
70406;SDS011;57821;52.202;0.154;2023-11-18T01:07:19;19.35;;;4.75;;
70406;SDS011;57821;52.202;0.154;2023-11-18T01:10:07;25.75;;;5.60;;
70406;SDS011;57821;52.202;0.154;2023-11-18T01:12:56;24.75;;;4.35;;
70406;SDS011;57821;52.202;0.154;2023-11-18T01:15:44;25.33;;;5.72;;
70406;SDS011;57821;52.202;0.154;2023-11-18T01:18:31;21.63;;;5.30;;
70406;SDS011;57821;52.202;0.154;2023-11-18T01:21:20;23.83;;;5.25;;
70406;SDS011;57821;52.202;0.154;2023-11-18T01:24:09;28.42;;;5.07;;
70406;SDS011;57821;52.202;0.154;2023-11-18T01:26:56;19.35;;;4.70;;
70406;SDS011;57821;52.202;0.154;2023-11-18T01:29:43;17.30;;;4.10;;
70406;SDS011;57821;52.202;0.154;2023-11-18T01:32:31;18.25;;;5.43;;
70406;SDS011;57821;52.202;0.154;2023-11-18T01:35:18;19.80;;;4.88;;
70406;SDS011;57821;52.202;0.154;2023-11-18T01:38:06;18.42;;;5.20;;
70406;SDS011;57821;52.202;0.154;2023-11-18T01:40:53;15.40;;;4.60;;
70406;SDS011;57821;52.202;0.154;2023-11-18T01:43:40;19.25;;;4.10;;
70406;SDS011;57821;52.202;0.154;2023-11-18T01:46:27;21.05;;;5.38;;
70406;SDS011;57821;52.202;0.154;2023-11-18T01:49:16;18.15;;;4.82;;
70406;SDS011;57821;52.202;0.154;2023-11-18T01:52:05;17.73;;;4.00;;
70406;SDS011;57821;52.202;0.154;2023-11-18T01:54:54;20.13;;;4.35;;
70406;SDS011;57821;52.202;0.154;2023-11-18T01:57:41;18.00;;;4.40;;
70406;SDS011;57821;52.202;0.154;2023-11-18T02:00:31;22.85;;;3.92;;
70406;SDS011;57821;52.202;0.154;2023-11-18T02:03:20;17.63;;;4.03;;
70406;SDS011;57821;52.202;0.154;2023-11-18T02:06:08;16.45;;;3.50;;
70406;SDS011;57821;52.202;0.154;2023-11-18T02:08:57;14.75;;;3.70;;
70406;SDS011;57821;52.202;0.154;2023-11-18T02:11:45;17.02;;;3.03;;
70406;SDS011;57821;52.202;0.154;2023-11-18T02:14:38;14.63;;;3.00;;
70406;SDS011;57821;52.202;0.154;2023-11-18T02:17:26;9.93;;;2.42;;
70406;SDS011;57821;52.202;0.154;2023-11-18T02:20:15;13.02;;;2.28;;
70406;SDS011;57821;52.202;0.154;2023-11-18T02:23:07;11.95;;;2.00;;
70406;SDS011;57821;52.202;0.154;2023-11-18T02:25:55;11.70;;;1.75;;
70406;SDS011;57821;52.202;0.154;2023-11-18T02:28:42;10.05;;;1.80;;
70406;SDS011;57821;52.202;0.154;2023-11-18T02:31:33;13.10;;;2.20;;
70406;SDS011;57821;52.202;0.154;2023-11-18T02:34:22;13.35;;;2.00;;
70406;SDS011;57821;52.202;0.154;2023-11-18T02:37:14;8.32;;;1.80;;
70406;SDS011;57821;52.202;0.154;2023-11-18T02:40:04;11.35;;;2.45;;
70406;SDS011;57821;52.202;0.154;2023-11-18T02:42:55;11.07;;;1.80;;
70406;SDS011;57821;52.202;0.154;2023-11-18T02:45:45;10.00;;;1.98;;
70406;SDS011;57821;52.202;0.154;2023-11-18T02:48:34;7.75;;;1.65;;
70406;SDS011;57821;52.202;0.154;2023-11-18T02:51:24;10.55;;;1.20;;
70406;SDS011;57821;52.202;0.154;2023-11-18T02:54:13;11.63;;;1.73;;
70406;SDS011;57821;52.202;0.154;2023-11-18T02:57:00;6.18;;;1.48;;
70406;SDS011;57821;52.202;0.154;2023-11-18T02:59:48;7.10;;;1.30;;
70406;SDS011;57821;52.202;0.154;2023-11-18T03:02:35;9.02;;;1.98;;
70406;SDS011;57821;52.202;0.154;2023-11-18T03:05:22;10.30;;;1.58;;
70406;SDS011;57821;52.202;0.154;2023-11-18T03:08:09;6.10;;;1.42;;
70406;SDS011;57821;52.202;0.154;2023-11-18T03:10:56;10.55;;;1.45;;
70406;SDS011;57821;52.202;0.154;2023-11-18T03:13:45;10.02;;;1.67;;
70406;SDS011;57821;52.202;0.154;2023-11-18T03:16:36;11.57;;;1.27;;
70406;SDS011;57821;52.202;0.154;2023-11-18T03:19:24;9.63;;;1.60;;
70406;SDS011;57821;52.202;0.154;2023-11-18T03:22:11;11.43;;;1.90;;
70406;SDS011;57821;52.202;0.154;2023-11-18T03:25:01;7.43;;;1.98;;
70406;SDS011;57821;52.202;0.154;2023-11-18T03:27:48;9.57;;;1.90;;
70406;SDS011;57821;52.202;0.154;2023-11-18T03:30:35;14.45;;;2.30;;
70406;SDS011;57821;52.202;0.154;2023-11-18T03:33:24;9.75;;;2.05;;
70406;SDS011;57821;52.202;0.154;2023-11-18T03:36:11;8.45;;;2.05;;
70406;SDS011;57821;52.202;0.154;2023-11-18T03:38:59;11.82;;;2.00;;
70406;SDS011;57821;52.202;0.154;2023-11-18T03:41:48;12.45;;;2.08;;
70406;SDS011;57821;52.202;0.154;2023-11-18T03:44:36;12.68;;;2.00;;
70406;SDS011;57821;52.202;0.154;2023-11-18T03:47:24;9.13;;;1.52;;
70406;SDS011;57821;52.202;0.154;2023-11-18T03:50:11;8.52;;;1.42;;
70406;SDS011;57821;52.202;0.154;2023-11-18T03:53:00;7.82;;;2.00;;
70406;SDS011;57821;52.202;0.154;2023-11-18T03:55:50;10.70;;;2.10;;
70406;SDS011;57821;52.202;0.154;2023-11-18T03:58:38;8.82;;;2.20;;
70406;SDS011;57821;52.202;0.154;2023-11-18T04:01:27;11.00;;;2.42;;
70406;SDS011;57821;52.202;0.154;2023-11-18T04:04:14;10.18;;;2.03;;
70406;SDS011;57821;52.202;0.154;2023-11-18T04:07:03;7.85;;;2.25;;
70406;SDS011;57821;52.202;0.154;2023-11-18T04:09:50;10.07;;;2.00;;
70406;SDS011;57821;52.202;0.154;2023-11-18T04:12:38;12.25;;;2.10;;
70406;SDS011;57821;52.202;0.154;2023-11-18T04:15:25;11.60;;;2.38;;
70406;SDS011;57821;52.202;0.154;2023-11-18T04:18:13;9.55;;;2.38;;
70406;SDS011;57821;52.202;0.154;2023-11-18T04:21:00;11.50;;;2.55;;
70406;SDS011;57821;52.202;0.154;2023-11-18T04:23:47;10.60;;;2.28;;
70406;SDS011;57821;52.202;0.154;2023-11-18T04:26:34;8.73;;;2.30;;
70406;SDS011;57821;52.202;0.154;2023-11-18T04:29:21;12.60;;;1.92;;
70406;SDS011;57821;52.202;0.154;2023-11-18T04:32:10;8.90;;;2.28;;
70406;SDS011;57821;52.202;0.154;2023-11-18T04:34:57;9.85;;;2.40;;
70406;SDS011;57821;52.202;0.154;2023-11-18T04:37:44;10.45;;;2.20;;
70406;SDS011;57821;52.202;0.154;2023-11-18T04:40:32;12.70;;;2.35;;
70406;SDS011;57821;52.202;0.154;2023-11-18T04:43:21;11.82;;;1.90;;
70406;SDS011;57821;52.202;0.154;2023-11-18T04:46:27;12.90;;;2.38;;
70406;SDS011;57821;52.202;0.154;2023-11-18T04:49:14;9.40;;;2.17;;
70406;SDS011;57821;52.202;0.154;2023-11-18T04:52:01;7.05;;;1.90;;
70406;SDS011;57821;52.202;0.154;2023-11-18T04:54:48;10.30;;;1.70;;
70406;SDS011;57821;52.202;0.154;2023-11-18T04:57:35;10.57;;;1.85;;
70406;SDS011;57821;52.202;0.154;2023-11-18T05:00:22;8.05;;;1.58;;
70406;SDS011;57821;52.202;0.154;2023-11-18T05:03:09;7.95;;;1.38;;
70406;SDS011;57821;52.202;0.154;2023-11-18T05:05:59;8.60;;;1.52;;
70406;SDS011;57821;52.202;0.154;2023-11-18T05:08:46;5.35;;;1.30;;
70406;SDS011;57821;52.202;0.154;2023-11-18T05:11:33;8.20;;;2.33;;
70406;SDS011;57821;52.202;0.154;2023-11-18T05:14:21;6.18;;;1.60;;
70406;SDS011;57821;52.202;0.154;2023-11-18T05:17:08;4.97;;;1.15;;
70406;SDS011;57821;52.202;0.154;2023-11-18T05:19:55;4.85;;;1.05;;
70406;SDS011;57821;52.202;0.154;2023-11-18T05:22:42;4.72;;;1.20;;
70406;SDS011;57821;52.202;0.154;2023-11-18T05:25:30;5.15;;;1.27;;
70406;SDS011;57821;52.202;0.154;2023-11-18T05:28:19;5.95;;;1.10;;
70406;SDS011;57821;52.202;0.154;2023-11-18T05:31:08;4.70;;;1.00;;
70406;SDS011;57821;52.202;0.154;2023-11-18T05:33:55;5.63;;;1.00;;
70406;SDS011;57821;52.202;0.154;2023-11-18T05:36:42;5.32;;;0.80;;
70406;SDS011;57821;52.202;0.154;2023-11-18T05:39:29;3.30;;;1.00;;
70406;SDS011;57821;52.202;0.154;2023-11-18T05:42:17;4.25;;;1.10;;
70406;SDS011;57821;52.202;0.154;2023-11-18T05:45:04;2.78;;;0.82;;
70406;SDS011;57821;52.202;0.154;2023-11-18T05:47:54;7.50;;;1.27;;
70406;SDS011;57821;52.202;0.154;2023-11-18T05:50:42;3.67;;;1.10;;
70406;SDS011;57821;52.202;0.154;2023-11-18T05:53:32;5.30;;;0.93;;
70406;SDS011;57821;52.202;0.154;2023-11-18T05:56:20;5.93;;;1.13;;
70406;SDS011;57821;52.202;0.154;2023-11-18T05:59:11;4.78;;;0.80;;
70406;SDS011;57821;52.202;0.154;2023-11-18T06:02:00;6.15;;;1.10;;
70406;SDS011;57821;52.202;0.154;2023-11-18T06:04:50;5.78;;;1.45;;
70406;SDS011;57821;52.202;0.154;2023-11-18T06:07:38;4.93;;;1.00;;
70406;SDS011;57821;52.202;0.154;2023-11-18T06:10:26;4.28;;;1.08;;
70406;SDS011;57821;52.202;0.154;2023-11-18T06:13:14;3.70;;;1.00;;
70406;SDS011;57821;52.202;0.154;2023-11-18T06:16:03;3.75;;;1.05;;
70406;SDS011;57821;52.202;0.154;2023-11-18T06:18:52;4.45;;;1.35;;
70406;SDS011;57821;52.202;0.154;2023-11-18T06:21:40;4.25;;;0.98;;
70406;SDS011;57821;52.202;0.154;2023-11-18T06:24:27;2.60;;;0.80;;
70406;SDS011;57821;52.202;0.154;2023-11-18T06:27:14;3.42;;;0.85;;
70406;SDS011;57821;52.202;0.154;2023-11-18T06:30:02;4.43;;;0.90;;
70406;SDS011;57821;52.202;0.154;2023-11-18T06:32:50;3.97;;;1.00;;
70406;SDS011;57821;52.202;0.154;2023-11-18T06:35:37;4.80;;;0.75;;
70406;SDS011;57821;52.202;0.154;2023-11-18T06:38:24;3.83;;;0.80;;
70406;SDS011;57821;52.202;0.154;2023-11-18T06:41:11;3.75;;;0.80;;
70406;SDS011;57821;52.202;0.154;2023-11-18T06:44:00;2.90;;;0.80;;
70406;SDS011;57821;52.202;0.154;2023-11-18T06:46:55;3.75;;;1.05;;
70406;SDS011;57821;52.202;0.154;2023-11-18T06:49:42;3.40;;;0.98;;
70406;SDS011;57821;52.202;0.154;2023-11-18T06:52:29;5.40;;;1.20;;
70406;SDS011;57821;52.202;0.154;2023-11-18T06:55:16;4.80;;;1.00;;
70406;SDS011;57821;52.202;0.154;2023-11-18T06:58:03;5.65;;;1.23;;
70406;SDS011;57821;52.202;0.154;2023-11-18T07:00:50;6.20;;;1.30;;
70406;SDS011;57821;52.202;0.154;2023-11-18T07:03:38;5.57;;;1.35;;
70406;SDS011;57821;52.202;0.154;2023-11-18T07:06:24;5.28;;;1.27;;
70406;SDS011;57821;52.202;0.154;2023-11-18T07:09:13;7.50;;;1.45;;
70406;SDS011;57821;52.202;0.154;2023-11-18T07:12:05;3.70;;;1.08;;
70406;SDS011;57821;52.202;0.154;2023-11-18T07:14:52;8.25;;;1.60;;
70406;SDS011;57821;52.202;0.154;2023-11-18T07:17:40;5.65;;;1.38;;
70406;SDS011;57821;52.202;0.154;2023-11-18T07:20:29;5.13;;;1.27;;
70406;SDS011;57821;52.202;0.154;2023-11-18T07:23:16;5.20;;;1.10;;
70406;SDS011;57821;52.202;0.154;2023-11-18T07:26:04;4.72;;;1.30;;
70406;SDS011;57821;52.202;0.154;2023-11-18T07:28:51;5.25;;;1.25;;
70406;SDS011;57821;52.202;0.154;2023-11-18T07:31:38;4.05;;;1.10;;
70406;SDS011;57821;52.202;0.154;2023-11-18T07:34:26;6.03;;;1.00;;
70406;SDS011;57821;52.202;0.154;2023-11-18T07:37:13;3.75;;;1.15;;
70406;SDS011;57821;52.202;0.154;2023-11-18T07:40:00;5.53;;;1.30;;
70406;SDS011;57821;52.202;0.154;2023-11-18T07:42:47;4.50;;;1.30;;
70406;SDS011;57821;52.202;0.154;2023-11-18T07:45:36;4.18;;;1.20;;
70406;SDS011;57821;52.202;0.154;2023-11-18T07:48:24;4.18;;;1.13;;
70406;SDS011;57821;52.202;0.154;2023-11-18T07:51:11;3.30;;;0.85;;
70406;SDS011;57821;52.202;0.154;2023-11-18T07:54:01;4.65;;;1.00;;
70406;SDS011;57821;52.202;0.154;2023-11-18T07:56:49;2.80;;;0.90;;
70406;SDS011;57821;52.202;0.154;2023-11-18T07:59:36;7.13;;;1.20;;
70406;SDS011;57821;52.202;0.154;2023-11-18T08:02:24;5.90;;;0.93;;
70406;SDS011;57821;52.202;0.154;2023-11-18T08:05:12;3.50;;;1.00;;
70406;SDS011;57821;52.202;0.154;2023-11-18T08:08:02;5.93;;;1.70;;
70406;SDS011;57821;52.202;0.154;2023-11-18T08:10:50;3.22;;;1.00;;
70406;SDS011;57821;52.202;0.154;2023-11-18T08:13:37;4.85;;;1.20;;
70406;SDS011;57821;52.202;0.154;2023-11-18T08:16:24;5.05;;;1.23;;
70406;SDS011;57821;52.202;0.154;2023-11-18T08:19:14;4.95;;;1.13;;
70406;SDS011;57821;52.202;0.154;2023-11-18T08:22:01;3.17;;;0.82;;
70406;SDS011;57821;52.202;0.154;2023-11-18T08:24:48;3.38;;;0.98;;
70406;SDS011;57821;52.202;0.154;2023-11-18T08:27:36;4.50;;;0.88;;
70406;SDS011;57821;52.202;0.154;2023-11-18T08:30:23;3.22;;;0.85;;
70406;SDS011;57821;52.202;0.154;2023-11-18T08:33:10;4.32;;;1.00;;
70406;SDS011;57821;52.202;0.154;2023-11-18T08:35:57;3.33;;;0.90;;
70406;SDS011;57821;52.202;0.154;2023-11-18T08:38:44;4.85;;;0.95;;
70406;SDS011;57821;52.202;0.154;2023-11-18T08:41:33;3.97;;;0.70;;
70406;SDS011;57821;52.202;0.154;2023-11-18T08:44:21;3.50;;;0.70;;
70406;SDS011;57821;52.202;0.154;2023-11-18T08:47:10;3.08;;;0.55;;
70406;SDS011;57821;52.202;0.154;2023-11-18T08:49:59;4.15;;;0.70;;
70406;SDS011;57821;52.202;0.154;2023-11-18T08:52:58;3.28;;;0.70;;
70406;SDS011;57821;52.202;0.154;2023-11-18T08:55:46;2.05;;;0.50;;
70406;SDS011;57821;52.202;0.154;2023-11-18T08:58:42;4.43;;;0.50;;
70406;SDS011;57821;52.202;0.154;2023-11-18T09:01:31;1.33;;;0.40;;
70406;SDS011;57821;52.202;0.154;2023-11-18T09:04:18;1.70;;;0.43;;
70406;SDS011;57821;52.202;0.154;2023-11-18T09:07:07;3.50;;;0.60;;
70406;SDS011;57821;52.202;0.154;2023-11-18T09:09:56;3.30;;;0.50;;
70406;SDS011;57821;52.202;0.154;2023-11-18T09:12:47;3.05;;;0.40;;
70406;SDS011;57821;52.202;0.154;2023-11-18T09:15:34;2.50;;;0.60;;
70406;SDS011;57821;52.202;0.154;2023-11-18T09:18:24;3.38;;;0.52;;
70406;SDS011;57821;52.202;0.154;2023-11-18T09:21:12;1.77;;;0.47;;
70406;SDS011;57821;52.202;0.154;2023-11-18T09:24:06;1.77;;;0.60;;
70406;SDS011;57821;52.202;0.154;2023-11-18T09:26:58;4.68;;;0.70;;
70406;SDS011;57821;52.202;0.154;2023-11-18T09:29:46;3.55;;;0.80;;
70406;SDS011;57821;52.202;0.154;2023-11-18T09:32:32;2.65;;;0.65;;
70406;SDS011;57821;52.202;0.154;2023-11-18T09:35:20;3.13;;;0.80;;
70406;SDS011;57821;52.202;0.154;2023-11-18T09:38:08;2.45;;;0.95;;
70406;SDS011;57821;52.202;0.154;2023-11-18T09:40:55;3.78;;;0.60;;
70406;SDS011;57821;52.202;0.154;2023-11-18T09:43:44;3.08;;;0.70;;
70406;SDS011;57821;52.202;0.154;2023-11-18T09:46:32;4.18;;;0.80;;
70406;SDS011;57821;52.202;0.154;2023-11-18T09:49:28;2.65;;;0.85;;
70406;SDS011;57821;52.202;0.154;2023-11-18T09:52:25;3.00;;;0.80;;
70406;SDS011;57821;52.202;0.154;2023-11-18T09:55:15;3.85;;;0.60;;
70406;SDS011;57821;52.202;0.154;2023-11-18T09:58:15;3.72;;;1.08;;
70406;SDS011;57821;52.202;0.154;2023-11-18T10:01:11;4.50;;;0.90;;
70406;SDS011;57821;52.202;0.154;2023-11-18T10:04:00;3.70;;;0.90;;
70406;SDS011;57821;52.202;0.154;2023-11-18T10:06:53;4.07;;;1.00;;
70406;SDS011;57821;52.202;0.154;2023-11-18T10:09:41;3.70;;;1.00;;
70406;SDS011;57821;52.202;0.154;2023-11-18T10:12:29;4.95;;;1.00;;
70406;SDS011;57821;52.202;0.154;2023-11-18T10:15:17;3.00;;;0.80;;
70406;SDS011;57821;52.202;0.154;2023-11-18T10:18:05;3.30;;;0.70;;
70406;SDS011;57821;52.202;0.154;2023-11-18T10:20:54;2.53;;;0.57;;
70406;SDS011;57821;52.202;0.154;2023-11-18T10:23:42;2.63;;;0.60;;
70406;SDS011;57821;52.202;0.154;2023-11-18T10:27:04;1.75;;;0.57;;
70406;SDS011;57821;52.202;0.154;2023-11-18T10:29:55;2.55;;;0.47;;
70406;SDS011;57821;52.202;0.154;2023-11-18T10:32:43;2.42;;;0.47;;
70406;SDS011;57821;52.202;0.154;2023-11-18T10:35:49;1.67;;;0.40;;
70406;SDS011;57821;52.202;0.154;2023-11-18T10:38:42;1.75;;;0.40;;
70406;SDS011;57821;52.202;0.154;2023-11-18T10:41:34;1.80;;;0.40;;
70406;SDS011;57821;52.202;0.154;2023-11-18T10:44:29;0.63;;;0.30;;
70406;SDS011;57821;52.202;0.154;2023-11-18T10:47:16;1.73;;;0.45;;
70406;SDS011;57821;52.202;0.154;2023-11-18T10:50:03;0.82;;;0.30;;
70406;SDS011;57821;52.202;0.154;2023-11-18T10:52:51;1.13;;;0.30;;
70406;SDS011;57821;52.202;0.154;2023-11-18T10:55:39;1.42;;;0.40;;
70406;SDS011;57821;52.202;0.154;2023-11-18T10:58:34;1.38;;;0.25;;
70406;SDS011;57821;52.202;0.154;2023-11-18T11:01:35;0.95;;;0.30;;
70406;SDS011;57821;52.202;0.154;2023-11-18T11:04:45;1.63;;;0.30;;
70406;SDS011;57821;52.202;0.154;2023-11-18T11:07:32;1.92;;;0.32;;
70406;SDS011;57821;52.202;0.154;2023-11-18T11:10:19;1.90;;;0.40;;
70406;SDS011;57821;52.202;0.154;2023-11-18T11:13:16;2.35;;;0.32;;
70406;SDS011;57821;52.202;0.154;2023-11-18T11:16:04;1.55;;;0.32;;
70406;SDS011;57821;52.202;0.154;2023-11-18T11:18:57;1.23;;;0.32;;
70406;SDS011;57821;52.202;0.154;2023-11-18T11:21:55;1.73;;;0.47;;
70406;SDS011;57821;52.202;0.154;2023-11-18T11:28:00;1.98;;;0.30;;
70406;SDS011;57821;52.202;0.154;2023-11-18T11:31:05;1.75;;;0.30;;
70406;SDS011;57821;52.202;0.154;2023-11-18T11:34:04;3.55;;;0.40;;
70406;SDS011;57821;52.202;0.154;2023-11-18T11:36:54;2.08;;;0.50;;
70406;SDS011;57821;52.202;0.154;2023-11-18T11:42:34;3.00;;;0.73;;
70406;SDS011;57821;52.202;0.154;2023-11-18T11:45:24;2.40;;;0.52;;
70406;SDS011;57821;52.202;0.154;2023-11-18T11:48:15;2.88;;;0.70;;
70406;SDS011;57821;52.202;0.154;2023-11-18T11:54:23;3.15;;;1.27;;
70406;SDS011;57821;52.202;0.154;2023-11-18T11:57:16;2.67;;;0.50;;
70406;SDS011;57821;52.202;0.154;2023-11-18T12:00:03;2.42;;;0.45;;
70406;SDS011;57821;52.202;0.154;2023-11-18T12:03:02;2.50;;;0.50;;
70406;SDS011;57821;52.202;0.154;2023-11-18T12:05:54;2.45;;;0.28;;
70406;SDS011;57821;52.202;0.154;2023-11-18T12:08:42;1.45;;;0.55;;
70406;SDS011;57821;52.202;0.154;2023-11-18T12:11:34;1.92;;;0.35;;
70406;SDS011;57821;52.202;0.154;2023-11-18T12:14:28;2.10;;;0.50;;
70406;SDS011;57821;52.202;0.154;2023-11-18T12:17:15;1.55;;;0.40;;
70406;SDS011;57821;52.202;0.154;2023-11-18T12:20:19;1.85;;;0.45;;
70406;SDS011;57821;52.202;0.154;2023-11-18T12:23:35;2.72;;;0.40;;
70406;SDS011;57821;52.202;0.154;2023-11-18T12:26:38;1.58;;;0.40;;
70406;SDS011;57821;52.202;0.154;2023-11-18T12:29:31;3.45;;;0.50;;
70406;SDS011;57821;52.202;0.154;2023-11-18T12:41:36;3.92;;;0.50;;
70406;SDS011;57821;52.202;0.154;2023-11-18T12:44:29;3.70;;;0.50;;
70406;SDS011;57821;52.202;0.154;2023-11-18T12:47:22;1.98;;;0.40;;
70406;SDS011;57821;52.202;0.154;2023-11-18T12:50:15;1.75;;;0.40;;
70406;SDS011;57821;52.202;0.154;2023-11-18T12:53:11;2.55;;;0.50;;
70406;SDS011;57821;52.202;0.154;2023-11-18T12:56:01;2.92;;;0.70;;
70406;SDS011;57821;52.202;0.154;2023-11-18T12:58:50;3.45;;;0.30;;
70406;SDS011;57821;52.202;0.154;2023-11-18T13:01:37;2.05;;;0.35;;
70406;SDS011;57821;52.202;0.154;2023-11-18T13:04:25;2.28;;;0.40;;
70406;SDS011;57821;52.202;0.154;2023-11-18T13:07:13;1.88;;;0.35;;
70406;SDS011;57821;52.202;0.154;2023-11-18T13:10:01;1.30;;;0.30;;
70406;SDS011;57821;52.202;0.154;2023-11-18T13:12:51;3.47;;;0.75;;
70406;SDS011;57821;52.202;0.154;2023-11-18T13:15:38;2.72;;;0.57;;
70406;SDS011;57821;52.202;0.154;2023-11-18T13:18:25;2.30;;;0.45;;
70406;SDS011;57821;52.202;0.154;2023-11-18T13:21:14;5.35;;;0.65;;
70406;SDS011;57821;52.202;0.154;2023-11-18T13:24:05;4.55;;;0.73;;
70406;SDS011;57821;52.202;0.154;2023-11-18T13:26:55;3.42;;;0.70;;
70406;SDS011;57821;52.202;0.154;2023-11-18T13:29:44;4.20;;;0.80;;
70406;SDS011;57821;52.202;0.154;2023-11-18T13:32:32;2.40;;;0.55;;
70406;SDS011;57821;52.202;0.154;2023-11-18T13:35:20;3.03;;;0.60;;
70406;SDS011;57821;52.202;0.154;2023-11-18T13:38:11;2.28;;;0.52;;
70406;SDS011;57821;52.202;0.154;2023-11-18T13:40:58;2.03;;;0.68;;
70406;SDS011;57821;52.202;0.154;2023-11-18T13:43:50;4.03;;;0.70;;
70406;SDS011;57821;52.202;0.154;2023-11-18T13:46:39;4.13;;;0.88;;
70406;SDS011;57821;52.202;0.154;2023-11-18T13:49:28;3.50;;;0.70;;
70406;SDS011;57821;52.202;0.154;2023-11-18T13:52:16;5.85;;;1.00;;
70406;SDS011;57821;52.202;0.154;2023-11-18T13:55:06;3.65;;;1.10;;
70406;SDS011;57821;52.202;0.154;2023-11-18T13:57:53;4.95;;;0.90;;
70406;SDS011;57821;52.202;0.154;2023-11-18T14:00:42;7.10;;;0.90;;
70406;SDS011;57821;52.202;0.154;2023-11-18T14:03:29;10.10;;;1.20;;
70406;SDS011;57821;52.202;0.154;2023-11-18T14:06:16;5.20;;;0.98;;
70406;SDS011;57821;52.202;0.154;2023-11-18T14:09:04;8.82;;;1.40;;
70406;SDS011;57821;52.202;0.154;2023-11-18T14:11:51;9.60;;;1.50;;
70406;SDS011;57821;52.202;0.154;2023-11-18T14:14:38;10.52;;;1.33;;
70406;SDS011;57821;52.202;0.154;2023-11-18T14:17:26;8.85;;;1.35;;
70406;SDS011;57821;52.202;0.154;2023-11-18T14:20:13;12.15;;;1.38;;
70406;SDS011;57821;52.202;0.154;2023-11-18T14:23:03;7.85;;;1.60;;
70406;SDS011;57821;52.202;0.154;2023-11-18T14:25:50;6.38;;;1.35;;
70406;SDS011;57821;52.202;0.154;2023-11-18T14:28:37;4.82;;;1.00;;
70406;SDS011;57821;52.202;0.154;2023-11-18T14:31:24;6.47;;;0.90;;
70406;SDS011;57821;52.202;0.154;2023-11-18T14:34:12;8.13;;;2.45;;
70406;SDS011;57821;52.202;0.154;2023-11-18T14:37:00;5.88;;;1.00;;
70406;SDS011;57821;52.202;0.154;2023-11-18T14:39:48;6.90;;;0.98;;
70406;SDS011;57821;52.202;0.154;2023-11-18T14:42:35;7.35;;;1.10;;
70406;SDS011;57821;52.202;0.154;2023-11-18T14:45:22;7.10;;;1.13;;
70406;SDS011;57821;52.202;0.154;2023-11-18T14:48:09;7.40;;;1.40;;
70406;SDS011;57821;52.202;0.154;2023-11-18T14:50:56;7.65;;;1.30;;
70406;SDS011;57821;52.202;0.154;2023-11-18T14:53:43;5.40;;;1.13;;
70406;SDS011;57821;52.202;0.154;2023-11-18T14:56:31;7.05;;;1.70;;
70406;SDS011;57821;52.202;0.154;2023-11-18T14:59:18;6.80;;;1.30;;
70406;SDS011;57821;52.202;0.154;2023-11-18T15:02:06;6.10;;;1.13;;
70406;SDS011;57821;52.202;0.154;2023-11-18T15:04:55;11.85;;;2.90;;
70406;SDS011;57821;52.202;0.154;2023-11-18T15:07:42;10.35;;;1.52;;
70406;SDS011;57821;52.202;0.154;2023-11-18T15:10:29;8.52;;;1.20;;
70406;SDS011;57821;52.202;0.154;2023-11-18T15:13:16;5.68;;;1.13;;
70406;SDS011;57821;52.202;0.154;2023-11-18T15:16:03;6.03;;;1.40;;
70406;SDS011;57821;52.202;0.154;2023-11-18T15:18:50;11.02;;;1.63;;
70406;SDS011;57821;52.202;0.154;2023-11-18T15:21:39;11.43;;;2.10;;
70406;SDS011;57821;52.202;0.154;2023-11-18T15:24:26;8.68;;;1.27;;
70406;SDS011;57821;52.202;0.154;2023-11-18T15:27:13;9.25;;;1.83;;
70406;SDS011;57821;52.202;0.154;2023-11-18T15:30:01;9.88;;;1.40;;
70406;SDS011;57821;52.202;0.154;2023-11-18T15:32:51;6.80;;;1.00;;
70406;SDS011;57821;52.202;0.154;2023-11-18T15:35:39;6.80;;;1.20;;
70406;SDS011;57821;52.202;0.154;2023-11-18T15:38:27;12.43;;;1.40;;
70406;SDS011;57821;52.202;0.154;2023-11-18T15:41:14;11.48;;;2.45;;
70406;SDS011;57821;52.202;0.154;2023-11-18T15:44:03;6.43;;;1.67;;
70406;SDS011;57821;52.202;0.154;2023-11-18T15:46:50;8.02;;;1.75;;
70406;SDS011;57821;52.202;0.154;2023-11-18T15:49:37;6.68;;;1.92;;
70406;SDS011;57821;52.202;0.154;2023-11-18T15:52:24;10.20;;;1.60;;
70406;SDS011;57821;52.202;0.154;2023-11-18T15:55:11;9.20;;;1.45;;
70406;SDS011;57821;52.202;0.154;2023-11-18T15:58:01;9.52;;;2.30;;
70406;SDS011;57821;52.202;0.154;2023-11-18T16:00:50;6.43;;;2.10;;
70406;SDS011;57821;52.202;0.154;2023-11-18T16:03:39;9.38;;;1.63;;
70406;SDS011;57821;52.202;0.154;2023-11-18T16:06:26;15.07;;;2.88;;
70406;SDS011;57821;52.202;0.154;2023-11-18T16:09:13;9.68;;;1.90;;
70406;SDS011;57821;52.202;0.154;2023-11-18T16:12:00;15.00;;;3.63;;
70406;SDS011;57821;52.202;0.154;2023-11-18T16:14:47;13.43;;;1.90;;
70406;SDS011;57821;52.202;0.154;2023-11-18T16:17:34;11.50;;;1.80;;
70406;SDS011;57821;52.202;0.154;2023-11-18T16:20:22;10.05;;;2.00;;
70406;SDS011;57821;52.202;0.154;2023-11-18T16:23:11;13.25;;;2.05;;
70406;SDS011;57821;52.202;0.154;2023-11-18T16:25:58;14.13;;;2.38;;
70406;SDS011;57821;52.202;0.154;2023-11-18T16:28:46;8.77;;;1.88;;
70406;SDS011;57821;52.202;0.154;2023-11-18T16:31:33;10.63;;;2.55;;
70406;SDS011;57821;52.202;0.154;2023-11-18T16:34:21;11.55;;;2.17;;
70406;SDS011;57821;52.202;0.154;2023-11-18T16:37:09;7.43;;;1.42;;
70406;SDS011;57821;52.202;0.154;2023-11-18T16:39:56;9.73;;;2.30;;
70406;SDS011;57821;52.202;0.154;2023-11-18T16:42:44;12.10;;;1.85;;
70406;SDS011;57821;52.202;0.154;2023-11-18T16:45:37;10.73;;;1.90;;
70406;SDS011;57821;52.202;0.154;2023-11-18T16:48:24;11.25;;;2.15;;
70406;SDS011;57821;52.202;0.154;2023-11-18T16:51:11;9.45;;;2.10;;
70406;SDS011;57821;52.202;0.154;2023-11-18T16:53:58;12.05;;;2.83;;
70406;SDS011;57821;52.202;0.154;2023-11-18T16:56:46;13.88;;;2.67;;
70406;SDS011;57821;52.202;0.154;2023-11-18T16:59:33;9.43;;;2.00;;
70406;SDS011;57821;52.202;0.154;2023-11-18T17:02:20;10.32;;;2.30;;
70406;SDS011;57821;52.202;0.154;2023-11-18T17:05:07;6.90;;;1.92;;
70406;SDS011;57821;52.202;0.154;2023-11-18T17:07:54;11.25;;;2.25;;
70406;SDS011;57821;52.202;0.154;2023-11-18T17:10:41;8.27;;;2.00;;